createdAt,value
2022-08-17T00:02:01.592Z,8.88
2022-08-17T00:06:16.541Z,8.93
2022-08-17T00:10:16.304Z,8.27
2022-08-17T00:14:24.700Z,8.13
2022-08-17T00:19:06.323Z,8.18
2022-08-17T00:22:47.831Z,9.00
2022-08-17T00:26:49.531Z,8.18
2022-08-17T00:30:53.368Z,8.75
2022-08-17T00:34:59.176Z,8.35
2022-08-17T00:39:01.471Z,7.50
2022-08-17T00:43:12.711Z,11.13
2022-08-17T00:47:13.633Z,8.93
2022-08-17T00:51:21.162Z,9.70
2022-08-17T00:55:23.945Z,8.13
2022-08-17T00:59:28.231Z,13.25
2022-08-17T01:03:31.929Z,8.13
2022-08-17T01:07:35.057Z,8.68
2022-08-17T01:11:43.665Z,8.88
2022-08-17T01:15:46.556Z,18.17
2022-08-17T01:19:48.879Z,11.23
2022-08-17T01:23:52.246Z,11.63
2022-08-17T01:27:52.674Z,9.35
2022-08-17T01:31:57.311Z,14.93
2022-08-17T01:35:58.673Z,10.95
2022-08-17T01:40:11.799Z,12.57
2022-08-17T01:44:18.049Z,11.40
2022-08-17T01:48:20.786Z,13.90
2022-08-17T01:52:24.867Z,14.18
2022-08-17T01:56:30.777Z,9.20
2022-08-17T02:00:59.484Z,9.02
2022-08-17T02:04:56.950Z,8.27
2022-08-17T02:09:02.810Z,8.93
2022-08-17T02:13:07.229Z,11.23
2022-08-17T02:17:10.430Z,11.18
2022-08-17T02:21:15.926Z,8.68
2022-08-17T02:25:19.901Z,8.90
2022-08-17T02:29:26.688Z,10.13
2022-08-17T02:33:41.832Z,10.40
2022-08-17T02:37:44.407Z,8.50
2022-08-17T02:41:48.838Z,11.10
2022-08-17T02:45:52.889Z,8.73
2022-08-17T02:49:56.176Z,9.93
2022-08-17T02:54:35.588Z,12.88
2022-08-17T02:58:34.958Z,8.52
2022-08-17T03:02:43.330Z,10.50
2022-08-17T03:06:42.903Z,9.77
2022-08-17T03:10:46.588Z,12.45
2022-08-17T03:14:50.095Z,8.88
2022-08-17T03:18:54.664Z,14.25
2022-08-17T03:23:02.956Z,9.95
2022-08-17T03:27:03.628Z,9.73
2022-08-17T03:31:07.712Z,13.65
2022-08-17T03:35:12.849Z,10.23
2022-08-17T03:39:13.035Z,8.95
2022-08-17T03:43:18.463Z,11.52
2022-08-17T03:47:37.261Z,8.57
2022-08-17T03:51:56.495Z,9.05
2022-08-17T03:56:17.838Z,11.20
2022-08-17T04:00:22.681Z,10.60
2022-08-17T04:04:27.719Z,11.85
2022-08-17T04:08:32.706Z,10.93
2022-08-17T04:13:01.987Z,9.63
2022-08-17T04:21:48.257Z,12.43
2022-08-17T04:25:53.399Z,8.20
2022-08-17T04:29:54.570Z,8.77
2022-08-17T04:33:56.492Z,10.38
2022-08-17T04:37:56.324Z,11.18
2022-08-17T04:42:17.149Z,11.07
2022-08-17T04:46:20.319Z,8.73
2022-08-17T04:50:21.025Z,11.18
2022-08-17T04:54:22.586Z,11.93
2022-08-17T04:58:33.931Z,16.90
2022-08-17T05:02:34.404Z,9.27
2022-08-17T05:06:34.377Z,11.55
2022-08-17T05:10:37.474Z,11.77
2022-08-17T05:14:52.762Z,8.20
2022-08-17T05:18:53.979Z,7.25
2022-08-17T05:22:55.392Z,15.25
2022-08-17T05:26:58.043Z,17.90
2022-08-17T05:31:05.587Z,11.02
2022-08-17T05:35:15.161Z,7.25
2022-08-17T05:39:18.442Z,14.25
2022-08-17T05:43:22.165Z,7.90
2022-08-17T05:47:30.809Z,11.20
2022-08-17T05:51:43.843Z,8.43
2022-08-17T05:56:11.617Z,11.93
2022-08-17T06:00:52.498Z,6.90
2022-08-17T06:05:13.017Z,8.27
2022-08-17T06:09:38.217Z,7.10
2022-08-17T06:13:55.657Z,10.00
2022-08-17T06:18:01.894Z,7.15
2022-08-17T06:22:06.052Z,8.52
2022-08-17T06:26:13.189Z,10.82
2022-08-17T06:30:16.622Z,9.82
2022-08-17T06:34:16.565Z,11.73
2022-08-17T06:38:37.406Z,10.73
2022-08-17T06:42:54.982Z,15.15
2022-08-17T06:47:28.456Z,11.52
2022-08-17T06:51:36.322Z,7.88
2022-08-17T06:55:59.141Z,11.43
2022-08-17T07:01:02.335Z,8.95
2022-08-17T07:05:03.915Z,8.48
2022-08-17T07:09:08.343Z,9.85
2022-08-17T07:13:29.281Z,6.45
2022-08-17T07:17:46.856Z,9.20
2022-08-17T07:21:54.809Z,6.75
2022-08-17T07:26:08.816Z,10.32
2022-08-17T07:30:27.182Z,7.50
2022-08-17T07:35:37.541Z,7.35
2022-08-17T07:45:30.242Z,7.55
2022-08-17T09:13:09.986Z,6.78
2022-08-17T14:18:55.588Z,10.68
2022-08-17T15:21:54.488Z,4.35
2022-08-17T16:31:55.506Z,7.40
2022-08-17T17:17:46.390Z,11.85
2022-08-17T17:21:51.686Z,10.18
2022-08-17T17:26:02.843Z,6.88
2022-08-17T17:35:43.464Z,5.50
2022-08-17T17:45:45.353Z,6.63
2022-08-17T17:49:49.310Z,6.90
2022-08-17T17:54:01.121Z,7.97
2022-08-17T17:58:39.699Z,5.15
2022-08-17T18:03:07.373Z,8.10
2022-08-17T18:07:29.406Z,9.65
2022-08-17T18:11:51.523Z,7.80
2022-08-17T18:16:01.116Z,8.50
2022-08-17T18:24:02.494Z,10.73
2022-08-17T18:28:02.562Z,10.40
2022-08-17T18:32:27.543Z,7.05
2022-08-17T18:36:30.442Z,6.68
2022-08-17T18:40:39.334Z,7.45
2022-08-17T18:48:59.120Z,6.07
2022-08-17T18:53:26.801Z,4.78
2022-08-17T18:57:34.686Z,5.50
2022-08-17T19:01:52.756Z,4.10
2022-08-17T19:05:58.090Z,6.10
2022-08-17T19:10:04.882Z,7.32
2022-08-17T19:14:08.490Z,18.40
2022-08-17T19:18:17.107Z,4.95
2022-08-17T19:22:29.100Z,5.10
2022-08-17T19:26:53.473Z,11.15
2022-08-17T19:31:02.868Z,5.57
2022-08-17T19:35:03.226Z,7.30
2022-08-17T19:39:13.211Z,4.68
2022-08-17T19:43:28.206Z,6.20
2022-08-17T19:47:54.325Z,8.52
2022-08-17T19:52:00.471Z,5.18
2022-08-17T19:56:11.041Z,8.73
2022-08-17T20:00:13.833Z,9.88
2022-08-17T20:04:18.954Z,12.52
2022-08-17T20:08:24.458Z,6.57
2022-08-17T20:12:32.861Z,11.93
2022-08-17T20:16:34.654Z,10.43
2022-08-17T20:20:46.876Z,8.02
2022-08-17T20:24:54.804Z,10.25
2022-08-17T20:29:39.655Z,8.38
2022-08-17T20:33:41.172Z,8.18
2022-08-17T20:37:45.184Z,7.65
2022-08-17T20:42:21.361Z,8.95
2022-08-17T20:46:53.180Z,9.43
2022-08-17T20:51:00.659Z,14.73
2022-08-17T20:55:02.341Z,12.20
2022-08-17T20:59:03.700Z,14.27
2022-08-17T21:03:51.441Z,14.82
2022-08-17T21:08:00.780Z,11.18
2022-08-17T21:12:05.433Z,14.87
2022-08-17T21:16:26.075Z,9.95
2022-08-17T21:20:32.488Z,11.25
2022-08-17T21:24:47.537Z,13.05
2022-08-17T21:29:17.883Z,16.58
2022-08-17T21:33:31.636Z,22.65
2022-08-17T21:37:43.100Z,30.08
2022-08-17T21:41:59.809Z,27.90
2022-08-17T21:46:06.138Z,33.95
2022-08-17T21:50:20.030Z,25.95
2022-08-17T21:54:34.454Z,18.48
2022-08-17T21:58:40.184Z,23.20
2022-08-17T22:02:44.089Z,22.27
2022-08-17T22:06:52.261Z,21.45
2022-08-17T22:11:03.949Z,26.15
2022-08-17T22:15:10.178Z,16.25
2022-08-17T22:19:12.863Z,18.50
2022-08-17T22:23:32.662Z,24.65
2022-08-17T22:31:58.616Z,18.35
2022-08-17T22:36:16.808Z,19.27
2022-08-17T22:40:28.903Z,15.15
2022-08-17T22:44:33.922Z,19.05
2022-08-17T22:48:37.354Z,13.45
2022-08-17T22:52:59.553Z,18.02
2022-08-17T22:57:20.574Z,16.48
2022-08-17T23:01:29.719Z,14.10
2022-08-17T23:05:34.019Z,10.57
2022-08-17T23:09:34.577Z,8.73
2022-08-17T23:13:37.322Z,9.00
2022-08-17T23:17:37.801Z,8.05
2022-08-17T23:21:40.749Z,12.35
2022-08-17T23:25:44.308Z,12.38
2022-08-17T23:29:47.072Z,17.40
2022-08-17T23:33:59.153Z,8.43
2022-08-17T23:38:02.024Z,12.35
2022-08-17T23:42:14.532Z,10.52
2022-08-17T23:46:17.416Z,12.85
2022-08-17T23:50:23.080Z,10.55
2022-08-17T23:54:43.521Z,15.65
2022-08-17T23:58:47.064Z,8.98
